Time;durP1;ratioP1;P1;durP2;ratioP2;P2;SDS_P1;SDS_P2;PMS_P1;PMS_P2;Temp;Humidity;BMP_temperature;BMP_pressure;BME280_temperature;BME280_humidity;BME280_pressure;Samples;Min_cycle;Max_cycle;Signal;HPM_P1;HPM_P2
2023/09/30 00:00:08;;;;;;;7.05;2.38;;;;;;;12.30;100.00;101455.59;5015628;28;20460;-79
2023/09/30 00:02:52;;;;;;;10.65;2.40;;;;;;;12.28;100.00;101452.25;5037100;28;20121;-79
2023/09/30 00:05:36;;;;;;;9.18;2.20;;;;;;;12.26;100.00;101465.63;5030940;28;20111;-79
2023/09/30 00:08:20;;;;;;;10.27;2.75;;;;;;;12.27;100.00;101464.50;5012538;28;20080;-79
2023/09/30 00:11:08;;;;;;;8.32;2.20;;;;;;;12.26;100.00;101468.41;5050332;28;20406;-79
2023/09/30 00:13:52;;;;;;;9.68;2.42;;;;;;;12.25;100.00;101455.59;5023204;28;20057;-79
2023/09/30 00:16:35;;;;;;;6.75;1.90;;;;;;;12.23;100.00;101469.00;5035636;28;20044;-79
2023/09/30 00:19:22;;;;;;;5.88;1.92;;;;;;;12.27;100.00;101483.19;5043204;28;20503;-79
2023/09/30 00:22:06;;;;;;;7.47;2.00;;;;;;;12.32;100.00;101487.91;5053691;28;20095;-78
2023/09/30 00:24:51;;;;;;;10.07;2.20;;;;;;;12.23;100.00;101491.25;5043389;28;20060;-79
2023/09/30 00:27:35;;;;;;;9.75;2.33;;;;;;;12.24;100.00;101492.91;5027954;28;20044;-79
2023/09/30 00:30:19;;;;;;;8.68;2.40;;;;;;;12.22;100.00;101488.75;5021491;28;20048;-79
2023/09/30 00:33:03;;;;;;;9.13;2.28;;;;;;;12.23;100.00;101482.91;5016472;28;20091;-79
2023/09/30 00:35:47;;;;;;;8.50;2.45;;;;;;;12.24;100.00;101486.53;5017636;28;20100;-80
2023/09/30 00:38:31;;;;;;;8.88;2.50;;;;;;;12.22;100.00;101497.09;5022349;28;20039;-79
2023/09/30 00:41:15;;;;;;;9.57;2.60;;;;;;;12.23;100.00;101499.63;5032169;28;20032;-79
2023/09/30 00:44:00;;;;;;;5.25;1.98;;;;;;;12.25;100.00;101511.28;5046675;28;20044;-79
2023/09/30 00:46:44;;;;;;;7.50;2.20;;;;;;;12.29;100.00;101518.00;5057246;28;20059;-79
2023/09/30 00:49:28;;;;;;;8.60;2.00;;;;;;;12.30;100.00;101518.81;5029027;28;20164;-79
2023/09/30 00:52:12;;;;;;;11.30;2.22;;;;;;;12.30;100.00;101525.22;5027456;28;20036;-79
2023/09/30 00:54:57;;;;;;;11.10;2.25;;;;;;;12.28;100.00;101524.66;5009648;28;20088;-79
2023/09/30 00:57:41;;;;;;;6.72;1.80;;;;;;;12.34;100.00;101524.66;5010925;28;20460;-79
2023/09/30 01:00:25;;;;;;;8.73;2.10;;;;;;;12.33;100.00;101523.81;5031402;28;20071;-79
2023/09/30 01:03:09;;;;;;;7.05;2.03;;;;;;;12.37;100.00;101512.94;4996498;28;20040;-79
2023/09/30 01:05:53;;;;;;;7.00;2.00;;;;;;;12.38;100.00;101520.19;5025471;28;20102;-79
2023/09/30 01:08:38;;;;;;;7.88;2.35;;;;;;;12.39;100.00;101516.28;5028867;28;20040;-79
2023/09/30 01:11:22;;;;;;;8.38;2.10;;;;;;;12.40;100.00;101526.34;5038500;28;20049;-79
2023/09/30 01:14:26;;;;;;;5.82;1.95;;;;;;;12.42;100.00;101526.88;5019087;28;20092;-79
2023/09/30 01:17:13;;;;;;;6.20;2.00;;;;;;;12.46;100.00;101528.00;4995239;28;20045;-79
2023/09/30 01:19:59;;;;;;;8.07;1.90;;;;;;;12.45;100.00;101517.94;5009384;28;20052;-79
2023/09/30 01:22:45;;;;;;;9.38;2.33;;;;;;;12.47;100.00;101507.34;5009280;28;20163;-79
2023/09/30 01:25:30;;;;;;;11.10;2.47;;;;;;;12.47;100.00;101497.03;4985797;28;20121;-79
2023/09/30 01:28:14;;;;;;;6.57;1.95;;;;;;;12.51;100.00;101508.47;5007849;28;20520;-79
2023/09/30 01:30:59;;;;;;;8.60;2.15;;;;;;;12.50;100.00;101518.75;5011437;28;20394;-79
2023/09/30 01:33:43;;;;;;;7.15;1.95;;;;;;;12.52;100.00;101510.97;5022113;28;20048;-79
2023/09/30 01:36:28;;;;;;;7.70;1.90;;;;;;;12.52;100.00;101507.34;5008676;28;20099;-79
2023/09/30 01:39:13;;;;;;;10.35;2.60;;;;;;;12.51;100.00;101508.47;4981298;28;20041;-79
2023/09/30 01:41:57;;;;;;;9.30;2.40;;;;;;;12.54;100.00;101505.13;4995524;28;20520;-79
2023/09/30 01:44:42;;;;;;;6.40;1.70;;;;;;;12.53;100.00;101504.25;5021935;28;20033;-79
2023/09/30 01:47:26;;;;;;;5.38;1.67;;;;;;;12.60;100.00;101503.16;5037373;28;20041;-79
2023/09/30 01:50:10;;;;;;;6.75;1.65;;;;;;;12.60;100.00;101492.00;5022120;28;20133;-79
2023/09/30 01:52:54;;;;;;;10.20;2.05;;;;;;;12.59;100.00;101484.75;5007959;28;20493;-79
2023/09/30 01:55:38;;;;;;;6.60;1.90;;;;;;;12.62;100.00;101498.97;5008588;28;20049;-79
2023/09/30 01:58:22;;;;;;;8.90;2.17;;;;;;;12.64;100.00;101493.91;4980524;28;20103;-79
2023/09/30 02:01:06;;;;;;;9.65;1.95;;;;;;;12.63;100.00;101492.25;4999560;28;20036;-79
2023/09/30 02:03:50;;;;;;;8.43;2.10;;;;;;;12.63;100.00;101486.69;5023219;28;20040;-79
2023/09/30 02:06:35;;;;;;;8.23;2.08;;;;;;;12.69;100.00;101490.28;5012751;28;20036;-79
2023/09/30 02:09:19;;;;;;;9.68;2.03;;;;;;;12.69;100.00;101493.09;5001298;28;20512;-79
2023/09/30 02:12:04;;;;;;;5.03;1.75;;;;;;;12.69;100.00;101484.72;5016776;28;20099;-79
2023/09/30 02:14:48;;;;;;;7.68;2.00;;;;;;;12.70;100.00;101470.50;5050983;28;20106;-79
2023/09/30 02:17:32;;;;;;;7.10;1.65;;;;;;;12.72;100.00;101475.78;5030223;28;20047;-79
2023/09/30 02:20:19;;;;;;;8.73;2.08;;;;;;;12.75;100.00;101466.84;5015492;28;20044;-79
2023/09/30 02:23:05;;;;;;;8.43;2.63;;;;;;;12.71;100.00;101468.56;5012885;28;20056;-79
2023/09/30 02:25:49;;;;;;;6.18;1.80;;;;;;;12.73;100.00;101474.66;5027700;28;20036;-80
2023/09/30 02:28:34;;;;;;;10.27;2.25;;;;;;;12.73;100.00;101464.38;5013667;28;20091;-79
2023/09/30 02:31:18;;;;;;;8.82;2.42;;;;;;;12.73;100.00;101469.09;5009269;28;20366;-79
2023/09/30 02:34:03;;;;;;;8.10;1.73;;;;;;;12.76;100.00;101462.97;5001025;28;20112;-79
2023/09/30 02:36:47;;;;;;;6.85;1.77;;;;;;;12.74;100.00;101454.03;5014837;28;20072;-79
2023/09/30 02:39:31;;;;;;;6.32;1.77;;;;;;;12.78;100.00;101446.75;5040226;28;20052;-79
2023/09/30 02:42:15;;;;;;;8.27;1.75;;;;;;;12.78;100.00;101441.19;5002156;28;20092;-79
2023/09/30 02:45:01;;;;;;;9.32;2.05;;;;;;;12.77;100.00;101433.13;5028657;28;20567;-79
2023/09/30 02:47:44;;;;;;;4.47;1.40;;;;;;;12.79;100.00;101436.44;5027332;28;20055;-79
2023/09/30 02:50:28;;;;;;;9.27;2.20;;;;;;;12.79;100.00;101448.44;5017660;28;20075;-79
2023/09/30 02:53:13;;;;;;;8.43;1.98;;;;;;;12.81;100.00;101453.72;5041834;28;20044;-79
2023/09/30 02:55:59;;;;;;;7.72;2.00;;;;;;;12.78;100.00;101443.97;5029142;28;20048;-79
2023/09/30 02:58:43;;;;;;;9.45;2.40;;;;;;;12.78;100.00;101435.63;5051774;28;20036;-79
2023/09/30 03:01:28;;;;;;;8.25;1.85;;;;;;;12.80;100.00;101438.13;5028184;28;20148;-79
2023/09/30 03:04:12;;;;;;;8.95;2.00;;;;;;;12.79;100.00;101436.44;5016452;28;20071;-79
2023/09/30 03:06:57;;;;;;;8.30;2.47;;;;;;;12.78;100.00;101443.16;5035437;28;20040;-79
2023/09/30 03:09:42;;;;;;;6.38;1.73;;;;;;;12.74;100.00;101449.28;5029677;28;20117;-79
2023/09/30 03:12:26;;;;;;;9.60;2.15;;;;;;;12.74;100.00;101460.44;5044408;28;20048;-79
2023/09/30 03:15:10;;;;;;;7.90;1.73;;;;;;;12.72;100.00;101454.31;5027350;28;20064;-79
2023/09/30 03:17:55;;;;;;;7.07;2.42;;;;;;;12.71;100.00;101435.94;5011621;28;20103;-79
2023/09/30 03:20:39;;;;;;;7.40;1.90;;;;;;;12.66;100.00;101422.03;5021531;28;20109;-79
2023/09/30 03:23:29;;;;;;;10.73;2.25;;;;;;;12.70;100.00;101411.97;5019159;28;20266;-79
2023/09/30 03:26:13;;;;;;;8.73;2.17;;;;;;;12.65;100.00;101398.06;5014373;28;20048;-79
2023/09/30 03:28:57;;;;;;;9.77;2.28;;;;;;;12.60;100.00;101395.31;5024884;28;20452;-79
2023/09/30 03:31:41;;;;;;;9.02;1.65;;;;;;;12.58;100.00;101385.56;5024565;28;20033;-79
2023/09/30 03:34:25;;;;;;;6.78;1.80;;;;;;;12.61;100.00;101380.25;5005136;28;20040;-79
2023/09/30 03:37:09;;;;;;;9.90;2.13;;;;;;;12.54;100.00;101382.53;5023760;28;20080;-79
2023/09/30 03:39:57;;;;;;;7.55;2.10;;;;;;;12.56;100.00;101391.41;5020279;28;20037;-79
2023/09/30 03:42:44;;;;;;;8.80;2.25;;;;;;;12.50;100.00;101389.78;5039226;28;20500;-79
2023/09/30 03:45:28;;;;;;;11.25;2.13;;;;;;;12.48;100.00;101397.56;4999528;28;20049;-80
2023/09/30 03:48:12;;;;;;;8.25;2.35;;;;;;;12.43;100.00;101417.13;5022290;28;20394;-79
2023/09/30 03:50:57;;;;;;;9.48;2.22;;;;;;;12.39;100.00;101424.34;5024278;28;20076;-79
2023/09/30 03:53:42;;;;;;;6.18;1.98;;;;;;;12.40;100.00;101428.84;5004872;28;20115;-79
2023/09/30 03:56:26;;;;;;;12.55;2.33;;;;;;;12.30;100.00;101418.53;5023890;28;20121;-79
2023/09/30 03:59:10;;;;;;;9.90;2.10;;;;;;;12.28;100.00;101417.97;5023929;28;20501;-79
2023/09/30 04:01:54;;;;;;;6.13;2.22;;;;;;;12.21;100.00;101420.25;5037413;28;20496;-79
2023/09/30 04:04:38;;;;;;;8.93;2.45;;;;;;;12.16;100.00;101435.00;4990710;28;20044;-79
2023/09/30 04:07:27;;;;;;;7.90;2.10;;;;;;;12.12;100.00;101433.94;5019360;28;20394;-79
2023/09/30 04:10:11;;;;;;;7.28;1.77;;;;;;;12.09;100.00;101440.06;5009949;28;20501;-79
2023/09/30 04:12:55;;;;;;;6.38;1.85;;;;;;;12.06;100.00;101437.81;5011659;28;20142;-79
2023/09/30 04:15:40;;;;;;;7.60;2.28;;;;;;;12.05;100.00;101438.94;5023870;28;20075;-79
2023/09/30 04:18:26;;;;;;;5.45;1.85;;;;;;;12.02;100.00;101423.63;5020001;28;20047;-79
2023/09/30 04:21:11;;;;;;;9.98;2.50;;;;;;;12.00;100.00;101413.88;5023301;28;20049;-79
2023/09/30 04:23:55;;;;;;;9.70;2.08;;;;;;;11.99;100.00;101417.81;5051969;28;20043;-79
2023/09/30 04:26:40;;;;;;;6.70;1.80;;;;;;;11.98;100.00;101397.47;4989720;28;20049;-79
2023/09/30 04:29:24;;;;;;;5.97;2.00;;;;;;;11.98;100.00;101391.91;5014798;28;20093;-79
2023/09/30 04:32:09;;;;;;;9.50;2.65;;;;;;;11.96;100.00;101396.91;5005291;28;20052;-79
2023/09/30 04:34:53;;;;;;;12.60;2.55;;;;;;;11.94;100.00;101401.09;5048541;28;20048;-79
2023/09/30 04:37:37;;;;;;;5.85;1.80;;;;;;;11.91;100.00;101396.94;4989622;28;20410;-79
2023/09/30 04:40:21;;;;;;;7.22;2.22;;;;;;;11.90;100.00;101400.00;5035429;28;20381;-79
2023/09/30 04:43:06;;;;;;;9.52;2.25;;;;;;;11.96;100.00;101396.09;5008652;28;20122;-79
2023/09/30 04:45:53;;;;;;;8.75;2.17;;;;;;;11.89;100.00;101388.00;5013249;28;20072;-79
2023/09/30 04:48:38;;;;;;;7.15;2.08;;;;;;;11.84;100.00;101388.84;4996593;28;20103;-79
2023/09/30 04:51:22;;;;;;;5.97;2.25;;;;;;;11.85;100.00;101381.31;5022505;28;20124;-79
2023/09/30 04:54:08;;;;;;;8.25;2.30;;;;;;;11.85;100.00;101373.84;4989939;28;20479;-79
2023/09/30 04:56:53;;;;;;;10.80;2.42;;;;;;;11.87;100.00;101384.72;4992069;28;20398;-79
2023/09/30 04:59:37;;;;;;;7.63;2.50;;;;;;;11.87;100.00;101386.63;5010678;28;20040;-79
2023/09/30 05:02:21;;;;;;;5.25;2.03;;;;;;;11.85;100.00;101379.41;5023515;28;20048;-79
2023/09/30 05:05:06;;;;;;;7.68;2.08;;;;;;;11.83;100.00;101380.75;5009463;28;20497;-79
2023/09/30 05:07:50;;;;;;;12.75;2.28;;;;;;;11.83;100.00;101381.59;5005370;28;20544;-79
2023/09/30 05:10:34;;;;;;;9.15;2.17;;;;;;;11.79;100.00;101390.81;5024703;28;20044;-79
2023/09/30 05:13:18;;;;;;;7.68;1.80;;;;;;;11.81;100.00;101383.84;5026651;28;20083;-79
2023/09/30 05:16:07;;;;;;;5.97;1.95;;;;;;;11.81;100.00;101388.56;5030968;28;20261;-79
2023/09/30 05:18:51;;;;;;;6.70;1.77;;;;;;;11.80;100.00;101401.63;5015444;28;20485;-79
2023/09/30 05:21:36;;;;;;;6.93;1.95;;;;;;;11.79;100.00;101390.81;5036302;28;20080;-79
2023/09/30 05:24:21;;;;;;;6.47;2.03;;;;;;;11.76;100.00;101403.34;5028722;28;20501;-79
2023/09/30 05:27:05;;;;;;;8.80;2.15;;;;;;;11.77;100.00;101393.84;5040128;28;20040;-79
2023/09/30 05:29:49;;;;;;;7.55;1.83;;;;;;;11.71;100.00;101392.19;5048897;28;20036;-79
2023/09/30 05:32:34;;;;;;;9.65;2.47;;;;;;;11.71;100.00;101391.38;5033289;28;20076;-79
2023/09/30 05:35:22;;;;;;;8.85;2.40;;;;;;;11.67;100.00;101391.06;5054834;28;20040;-79
2023/09/30 05:38:07;;;;;;;11.63;2.05;;;;;;;11.69;100.00;101391.63;5036601;28;20045;-79
2023/09/30 05:40:51;;;;;;;7.88;2.10;;;;;;;11.70;100.00;101393.31;5017929;28;20067;-79
2023/09/30 05:43:35;;;;;;;8.25;2.15;;;;;;;11.70;100.00;101390.53;5037826;28;20043;-79
2023/09/30 05:46:19;;;;;;;6.90;2.22;;;;;;;11.71;100.00;101396.94;5042210;28;20109;-79
2023/09/30 05:49:09;;;;;;;8.07;1.92;;;;;;;11.71;100.00;101394.97;5013638;28;20089;-79
2023/09/30 05:51:55;;;;;;;7.57;2.17;;;;;;;11.70;100.00;101398.03;5043701;28;20036;-79
2023/09/30 05:54:39;;;;;;;8.73;2.10;;;;;;;11.69;100.00;101391.63;5056195;28;20129;-79
2023/09/30 05:57:23;;;;;;;9.85;2.35;;;;;;;11.70;100.00;101393.31;5041553;28;20047;-79
2023/09/30 06:00:12;;;;;;;5.63;2.10;;;;;;;11.67;100.00;101399.44;5042102;28;20036;-79
2023/09/30 06:02:58;;;;;;;9.38;2.17;;;;;;;11.64;100.00;101405.56;5042356;28;20099;-79
2023/09/30 06:05:42;;;;;;;6.18;2.03;;;;;;;11.64;100.00;101402.78;5027437;28;20036;-79
2023/09/30 06:08:26;;;;;;;10.90;2.80;;;;;;;11.60;100.00;101410.03;5041629;28;20135;-79
2023/09/30 06:11:25;;;;;;;9.63;2.33;;;;;;;11.58;100.00;101407.50;5027916;28;20071;-79
2023/09/30 06:14:09;;;;;;;7.68;2.38;;;;;;;11.65;100.00;101396.09;5037585;28;20104;-79
2023/09/30 06:16:53;;;;;;;5.30;2.20;;;;;;;11.61;100.00;101397.75;5041287;28;20545;-79
2023/09/30 06:19:37;;;;;;;8.40;2.53;;;;;;;11.52;100.00;101411.41;5022392;28;20087;-79
2023/09/30 06:22:21;;;;;;;8.63;2.50;;;;;;;11.51;100.00;101408.91;5024520;28;20091;-79
2023/09/30 06:25:06;;;;;;;7.75;2.42;;;;;;;11.49;100.00;101409.19;5056376;28;20102;-79
2023/09/30 06:27:50;;;;;;;10.23;2.65;;;;;;;11.47;100.00;101421.69;5030051;28;20040;-79
2023/09/30 06:30:35;;;;;;;9.10;2.45;;;;;;;11.50;100.00;101421.97;5013609;28;20500;-79
2023/09/30 06:33:18;;;;;;;9.13;2.63;;;;;;;11.50;100.00;101426.72;5022369;28;20095;-79
2023/09/30 06:36:16;;;;;;;8.57;2.30;;;;;;;11.50;100.00;101437.84;5026039;28;20075;-79
2023/09/30 06:39:01;;;;;;;9.85;3.03;;;;;;;11.50;100.00;101443.41;5016268;28;20393;-79
2023/09/30 06:41:46;;;;;;;9.35;2.33;;;;;;;11.50;100.00;101438.66;5056119;28;20095;-79
2023/09/30 06:44:31;;;;;;;9.55;2.33;;;;;;;11.52;100.00;101430.06;5055203;28;20083;-80
2023/09/30 06:47:15;;;;;;;6.80;2.33;;;;;;;11.53;100.00;101440.91;5022243;28;20155;-79
2023/09/30 06:50:08;;;;;;;7.75;2.40;;;;;;;11.53;100.00;101437.28;5041248;28;20044;-79
2023/09/30 06:52:52;;;;;;;8.52;2.30;;;;;;;11.56;100.00;101443.13;5044900;28;20099;-79
2023/09/30 06:55:38;;;;;;;5.97;2.47;;;;;;;11.55;100.00;101446.19;5044995;28;20559;-79
2023/09/30 06:58:23;;;;;;;10.95;3.10;;;;;;;11.58;100.00;101445.63;5038538;28;20040;-79
2023/09/30 07:01:07;;;;;;;8.63;2.38;;;;;;;11.59;100.00;101436.19;5044601;28;20075;-78
2023/09/30 07:03:51;;;;;;;6.43;2.50;;;;;;;11.61;100.00;101437.53;5058669;28;20094;-79
2023/09/30 07:06:35;;;;;;;7.68;2.15;;;;;;;11.66;100.00;101442.28;5006001;28;20110;-79
2023/09/30 07:09:20;;;;;;;8.30;2.45;;;;;;;11.67;100.00;101443.94;5040248;28;20098;-79
2023/09/30 07:12:04;;;;;;;9.57;2.33;;;;;;;11.70;100.00;101448.13;5043904;28;20582;-79
2023/09/30 07:14:48;;;;;;;6.97;2.55;;;;;;;11.75;100.00;101445.34;5046665;28;20044;-79
2023/09/30 07:17:33;;;;;;;7.13;2.50;;;;;;;11.79;100.00;101444.50;5059267;28;20542;-79
2023/09/30 07:20:17;;;;;;;9.80;2.60;;;;;;;11.83;100.00;101448.38;5025856;28;20104;-79
2023/09/30 07:23:03;;;;;;;6.85;2.60;;;;;;;11.88;100.00;101467.09;5053101;28;20091;-79
2023/09/30 07:25:47;;;;;;;7.40;2.55;;;;;;;11.95;100.00;101462.06;5030396;28;20052;-79
2023/09/30 07:28:33;;;;;;;8.95;2.30;;;;;;;12.02;100.00;101473.75;5039014;28;20161;-79
2023/09/30 07:31:17;;;;;;;7.43;2.40;;;;;;;12.11;100.00;101467.59;5005597;28;20178;-79
2023/09/30 07:34:02;;;;;;;6.57;2.20;;;;;;;12.18;100.00;101466.22;5055946;28;20160;-79
2023/09/30 07:36:46;;;;;;;8.38;2.90;;;;;;;12.26;100.00;101464.81;5043510;28;20040;-79
2023/09/30 07:39:30;;;;;;;9.88;2.92;;;;;;;12.36;100.00;101466.72;5029253;28;20044;-79
2023/09/30 07:42:16;;;;;;;10.80;2.92;;;;;;;12.46;100.00;101466.69;5012456;28;20533;-79
2023/09/30 07:45:01;;;;;;;9.30;2.70;;;;;;;12.57;100.00;101479.47;5012514;28;20103;-79
2023/09/30 07:47:46;;;;;;;6.75;2.22;;;;;;;12.70;100.00;101472.44;5057530;28;20044;-79
2023/09/30 07:50:31;;;;;;;8.38;3.38;;;;;;;12.85;100.00;101464.03;5043921;28;20048;-79
2023/09/30 07:53:14;;;;;;;9.93;2.90;;;;;;;13.01;100.00;101462.00;5029459;28;20040;-79
2023/09/30 07:55:58;;;;;;;10.95;3.75;;;;;;;13.16;100.00;101472.22;5029578;28;20138;-79
2023/09/30 07:58:43;;;;;;;10.88;3.28;;;;;;;13.33;100.00;101475.50;5043702;28;20095;-79
2023/09/30 08:01:28;;;;;;;8.50;2.53;;;;;;;13.51;100.00;101459.16;5030332;28;20044;-79
2023/09/30 08:04:13;;;;;;;8.20;3.03;;;;;;;13.66;100.00;101455.44;5057889;28;20091;-79
2023/09/30 08:06:57;;;;;;;10.75;2.97;;;;;;;13.81;100.00;101467.28;5043999;28;20036;-79
2023/09/30 08:09:42;;;;;;;9.27;3.53;;;;;;;13.97;100.00;101467.16;5031577;28;20048;-79
2023/09/30 08:12:26;;;;;;;8.63;2.63;;;;;;;14.11;100.00;101453.34;5035255;28;20083;-79
2023/09/30 08:15:11;;;;;;;12.48;3.28;;;;;;;14.24;100.00;101456.28;5043534;28;20083;-79
2023/09/30 08:17:56;;;;;;;11.13;3.17;;;;;;;14.41;100.00;101457.78;5030326;28;20068;-79
2023/09/30 08:20:40;;;;;;;9.75;3.03;;;;;;;14.57;100.00;101453.72;5035831;28;20094;-79
2023/09/30 08:23:26;;;;;;;8.75;2.90;;;;;;;14.72;100.00;101456.31;5024585;28;20568;-79
2023/09/30 08:26:10;;;;;;;14.38;3.85;;;;;;;14.86;100.00;101456.41;5052499;28;20044;-80
2023/09/30 08:28:54;;;;;;;10.13;3.42;;;;;;;15.02;100.00;101451.44;5058986;28;20071;-79
2023/09/30 08:31:38;;;;;;;15.02;4.00;;;;;;;15.19;100.00;101448.94;5056381;28;20118;-79
2023/09/30 08:34:24;;;;;;;10.35;3.00;;;;;;;15.33;100.00;101460.22;5036241;28;20067;-76
2023/09/30 08:37:09;;;;;;;12.00;3.53;;;;;;;15.53;100.00;101452.63;5059740;28;20043;-77
2023/09/30 08:39:53;;;;;;;9.73;3.45;;;;;;;15.68;100.00;101458.00;5047560;28;20043;-77
2023/09/30 08:42:38;;;;;;;10.20;3.45;;;;;;;15.84;100.00;101456.59;5025885;28;20385;-76
2023/09/30 08:45:22;;;;;;;14.98;3.58;;;;;;;16.02;100.00;101465.28;5043959;28;20079;-76
2023/09/30 08:48:07;;;;;;;15.15;3.78;;;;;;;16.14;100.00;101471.22;5042005;28;20560;-77
2023/09/30 08:50:51;;;;;;;13.52;3.78;;;;;;;16.28;100.00;101474.88;5022723;28;20147;-77
2023/09/30 08:53:36;;;;;;;12.35;4.00;;;;;;;16.46;100.00;101469.47;5030756;28;20040;-76
2023/09/30 08:56:21;;;;;;;11.07;3.80;;;;;;;16.59;100.00;101479.88;5039894;28;20150;-77
2023/09/30 08:59:05;;;;;;;13.23;4.22;;;;;;;16.75;100.00;101472.81;5035776;28;20063;-76
2023/09/30 09:01:49;;;;;;;12.00;3.20;;;;;;;16.92;100.00;101471.38;5041363;28;20134;-77
2023/09/30 09:04:33;;;;;;;13.38;3.85;;;;;;;17.07;100.00;101470.22;5027830;28;20047;-77
2023/09/30 09:07:17;;;;;;;14.75;5.07;;;;;;;17.22;100.00;101457.78;5041859;28;20558;-77
2023/09/30 09:10:05;;;;;;;16.83;5.88;;;;;;;17.36;100.00;101453.81;5041129;28;20047;-77
2023/09/30 09:12:56;;;;;;;21.25;6.45;;;;;;;17.54;100.00;101454.78;5028689;28;20131;-77
2023/09/30 09:15:41;;;;;;;22.00;5.72;;;;;;;17.68;100.00;101442.66;5008036;28;20400;-77
2023/09/30 09:18:32;;;;;;;20.60;7.35;;;;;;;17.80;100.00;101437.31;5032174;28;20044;-77
2023/09/30 09:21:19;;;;;;;21.33;7.97;;;;;;;17.88;100.00;101438.53;4994831;28;20076;-77
2023/09/30 09:24:03;;;;;;;19.35;6.50;;;;;;;18.03;100.00;101438.94;5011964;28;20051;-77
2023/09/30 09:26:48;;;;;;;17.90;6.30;;;;;;;18.14;100.00;101435.88;5005321;28;20461;-77
2023/09/30 09:29:33;;;;;;;16.75;5.75;;;;;;;18.28;100.00;101428.16;5024576;28;20103;-77
2023/09/30 09:32:17;;;;;;;15.57;5.07;;;;;;;18.37;100.00;101429.03;5012552;28;20503;-77
2023/09/30 09:35:03;;;;;;;17.98;6.00;;;;;;;18.51;100.00;101418.47;5031594;28;20048;-77
2023/09/30 09:38:16;;;;;;;15.05;4.93;;;;;;;18.66;100.00;101424.81;5018666;28;20408;-77
2023/09/30 09:41:00;;;;;;;13.52;4.32;;;;;;;18.75;100.00;101428.53;5021584;28;20099;-77
2023/09/30 09:43:44;;;;;;;10.73;4.45;;;;;;;18.92;100.00;101433.38;5001117;28;20398;-77
2023/09/30 09:46:28;;;;;;;17.92;5.22;;;;;;;19.01;100.00;101427.75;5030994;28;20117;-77
2023/09/30 09:49:12;;;;;;;14.32;4.60;;;;;;;19.14;100.00;101426.78;5018856;28;20052;-77
2023/09/30 09:51:57;;;;;;;15.32;5.22;;;;;;;19.30;100.00;101425.09;5022796;28;20076;-77
2023/09/30 09:54:43;;;;;;;14.80;5.10;;;;;;;19.39;100.00;101434.41;5007524;28;20103;-77
2023/09/30 09:57:27;;;;;;;10.73;4.53;;;;;;;19.53;100.00;101430.56;5034028;28;20051;-77
2023/09/30 10:00:15;;;;;;;17.88;4.78;;;;;;;19.63;100.00;101438.69;5009817;28;20041;-77
2023/09/30 10:02:59;;;;;;;15.75;4.82;;;;;;;19.74;100.00;101425.94;5035152;28;20037;-77
2023/09/30 10:05:43;;;;;;;14.80;4.90;;;;;;;19.88;100.00;101436.19;5020431;28;20048;-77
2023/09/30 10:08:31;;;;;;;13.43;4.63;;;;;;;19.98;100.00;101425.38;4988101;28;20044;-77
2023/09/30 10:11:19;;;;;;;11.43;4.65;;;;;;;20.10;100.00;101430.31;5031177;28;20520;-77
2023/09/30 10:14:04;;;;;;;17.40;5.25;;;;;;;20.19;100.00;101419.00;5014753;28;20083;-77
2023/09/30 10:16:48;;;;;;;19.40;5.60;;;;;;;20.30;100.00;101426.75;4996881;28;20072;-77
2023/09/30 10:19:32;;;;;;;14.13;4.95;;;;;;;20.42;100.00;101425.22;5001280;28;20394;-78
2023/09/30 10:22:19;;;;;;;11.07;4.50;;;;;;;20.56;100.00;101425.88;5025978;28;20585;-77
2023/09/30 10:25:46;;;;;;;16.92;5.20;;;;;;;20.64;100.00;101430.59;5021900;28;20501;-77
2023/09/30 10:28:33;;;;;;;15.25;5.13;;;;;;;20.80;100.00;101424.38;5038714;28;20044;-76
2023/09/30 10:31:24;;;;;;;12.40;4.43;;;;;;;20.95;100.00;101432.28;5032481;28;20036;-78
2023/09/30 10:34:08;;;;;;;14.35;4.38;;;;;;;21.11;100.00;101424.81;5005675;28;20052;-78
2023/09/30 10:36:52;;;;;;;14.23;5.05;;;;;;;21.26;100.00;101420.59;5040028;28;20087;-78
2023/09/30 10:39:59;;;;;;;11.48;4.05;;;;;;;21.41;100.00;101411.50;5023183;28;20044;-78
2023/09/30 10:42:49;;;;;;;15.23;4.60;;;;;;;21.54;100.00;101414.38;4992590;28;20144;-76
2023/09/30 10:45:39;;;;;;;12.52;4.53;;;;;;;21.59;100.00;101416.97;5015665;28;20047;-74
2023/09/30 10:48:32;;;;;;;16.98;4.93;;;;;;;21.66;100.00;101410.78;5023388;28;20059;-74
2023/09/30 10:51:19;;;;;;;;;;;;;;;21.77;100.00;101412.00;5005195;28;20048;-74
2023/09/30 10:54:03;;;;;;;16.35;5.25;;;;;;;21.84;100.00;101407.44;5038554;28;19920;-74
2023/09/30 10:56:47;;;;;;;20.55;5.65;;;;;;;21.95;100.00;101396.47;5014694;28;20045;-74
2023/09/30 10:59:31;;;;;;;15.93;5.88;;;;;;;22.08;100.00;101400.97;5000190;28;20049;-74
2023/09/30 11:02:19;;;;;;;12.00;4.95;;;;;;;22.12;100.00;101397.44;5031383;28;20449;-74
2023/09/30 11:05:10;;;;;;;14.65;4.65;;;;;;;22.19;100.00;101394.91;5029502;28;20048;-74
2023/09/30 11:07:57;;;;;;;11.77;5.30;;;;;;;22.28;100.00;101389.97;5021131;28;20040;-74
2023/09/30 11:10:48;;;;;;;13.32;5.38;;;;;;;22.39;100.00;101391.13;5011496;28;20041;-74
2023/09/30 11:13:34;;;;;;;13.50;4.90;;;;;;;22.52;100.00;101389.16;5043857;28;20040;-74
2023/09/30 11:16:18;;;;;;;15.82;5.05;;;;;;;22.64;100.00;101388.31;5028904;28;20044;-74
2023/09/30 11:19:03;;;;;;;11.60;4.63;;;;;;;22.71;100.00;101392.19;5026759;28;20047;-74
2023/09/30 11:21:58;;;;;;;12.25;5.45;;;;;;;22.81;100.00;101381.56;5030286;28;20040;-74
2023/09/30 11:24:42;;;;;;;12.82;5.03;;;;;;;22.88;100.00;101391.13;5058370;28;20075;-74
2023/09/30 11:27:27;;;;;;;18.70;4.82;;;;;;;22.96;100.00;101389.38;5044217;28;20043;-74
2023/09/30 11:30:14;;;;;;;11.82;5.13;;;;;;;23.06;100.00;101393.69;5028916;28;20186;-74
2023/09/30 11:33:00;;;;;;;16.83;5.50;;;;;;;23.12;100.00;101381.78;5057454;28;20047;-74
2023/09/30 11:36:05;;;;;;;13.88;5.63;;;;;;;23.18;100.00;101390.84;5034837;28;20094;-74
2023/09/30 11:38:52;;;;;;;14.10;5.55;;;;;;;23.29;100.00;101389.16;5043324;28;20052;-75
2023/09/30 11:41:43;;;;;;;12.50;5.22;;;;;;;23.36;100.00;101385.69;5043911;28;20091;-74
2023/09/30 11:44:30;;;;;;;14.43;5.45;;;;;;;23.38;100.00;101381.31;5043943;28;20207;-74
2023/09/30 11:47:15;;;;;;;11.70;4.95;;;;;;;23.45;100.00;101386.34;5033049;28;20132;-74
2023/09/30 11:49:59;;;;;;;11.88;5.00;;;;;;;23.54;100.00;101383.38;5056668;28;20048;-74
2023/09/30 11:52:46;;;;;;;13.00;5.93;;;;;;;23.56;100.00;101384.66;5042949;28;20103;-74
2023/09/30 11:55:31;;;;;;;13.38;5.60;;;;;;;23.63;100.00;101381.22;5018416;28;20094;-75
2023/09/30 11:58:18;;;;;;;13.52;5.60;;;;;;;23.67;100.00;101376.44;5055741;28;20387;-74
2023/09/30 12:01:03;;;;;;;15.35;5.15;;;;;;;23.69;100.00;101365.56;5057303;28;20056;-74
2023/09/30 12:03:47;;;;;;;14.85;5.75;;;;;;;23.80;100.00;101366.72;5057419;28;20028;-75
2023/09/30 12:06:34;;;;;;;12.82;5.80;;;;;;;23.88;100.00;101356.41;5042119;28;20114;-74
2023/09/30 12:09:22;;;;;;;15.57;5.32;;;;;;;23.93;100.00;101363.78;5041609;28;20048;-74
2023/09/30 12:12:09;;;;;;;14.65;5.57;;;;;;;23.96;100.00;101360.22;5043773;28;20083;-74
2023/09/30 12:14:54;;;;;;;15.30;6.07;;;;;;;24.00;100.00;101364.00;5018977;28;20075;-74
2023/09/30 12:17:40;;;;;;;13.77;6.10;;;;;;;24.03;100.00;101347.06;5029372;28;20063;-75
2023/09/30 12:20:25;;;;;;;14.82;6.30;;;;;;;24.09;100.00;101350.44;5043318;28;20546;-74
2023/09/30 12:23:09;;;;;;;13.63;5.22;;;;;;;24.10;100.00;101352.13;5029251;28;20035;-74
2023/09/30 12:25:54;;;;;;;12.77;5.47;;;;;;;24.14;100.00;101353.00;5015870;28;20051;-74
2023/09/30 12:28:40;;;;;;;14.00;5.35;;;;;;;24.17;100.00;101351.47;5043248;28;20056;-74
2023/09/30 12:31:24;;;;;;;12.95;5.68;;;;;;;24.26;100.00;101344.38;5041706;28;20099;-74
2023/09/30 12:34:09;;;;;;;13.65;5.70;;;;;;;24.23;100.00;101336.63;5029387;28;20127;-74
2023/09/30 12:36:53;;;;;;;15.52;6.10;;;;;;;24.31;100.00;101341.28;5029371;28;20167;-75